sensor_id;sensor_type;location;lat;lon;timestamp;pressure;altitude;pressure_sealevel;temperature;humidity
7754;BME280;3921;42.266;23.122;2023-05-03T00:02:06;95931.97;;;15.91;46.31
7754;BME280;3921;42.266;23.122;2023-05-03T00:04:37;95736.88;;;14.63;45.92
7754;BME280;3921;42.266;23.122;2023-05-03T00:07:06;95402.59;;;12.64;45.45
7754;BME280;3921;42.266;23.122;2023-05-03T00:09:33;95650.94;;;14.10;45.41
7754;BME280;3921;42.266;23.122;2023-05-03T00:12:03;95368.63;;;12.34;45.27
7754;BME280;3921;42.266;23.122;2023-05-03T00:14:33;95639.72;;;13.75;45.81
7754;BME280;3921;42.266;23.122;2023-05-03T00:17:00;95403.75;;;12.43;45.54
7754;BME280;3921;42.266;23.122;2023-05-03T00:19:28;95437.13;;;12.59;45.61
7754;BME280;3921;42.266;23.122;2023-05-03T00:22:02;95567.25;;;13.31;45.81
7754;BME280;3921;42.266;23.122;2023-05-03T00:24:33;95459.09;;;12.49;45.35
7754;BME280;3921;42.266;23.122;2023-05-03T00:27:00;95423.09;;;12.41;45.48
7754;BME280;3921;42.266;23.122;2023-05-03T00:29:29;95337.44;;;11.81;45.12
7754;BME280;3921;42.266;23.122;2023-05-03T00:32:00;95674.78;;;13.95;45.14
7754;BME280;3921;42.266;23.122;2023-05-03T00:34:30;95441.84;;;12.22;45.67
7754;BME280;3921;42.266;23.122;2023-05-03T00:37:10;95381.72;;;11.96;45.25
7754;BME280;3921;42.266;23.122;2023-05-03T00:39:38;95486.50;;;12.72;45.13
7754;BME280;3921;42.266;23.122;2023-05-03T00:42:06;95911.03;;;15.35;44.84
7754;BME280;3921;42.266;23.122;2023-05-03T00:44:33;95368.16;;;12.06;45.00
7754;BME280;3921;42.266;23.122;2023-05-03T00:47:02;95401.03;;;11.95;45.17
7754;BME280;3921;42.266;23.122;2023-05-03T00:49:32;95431.47;;;12.45;44.93
7754;BME280;3921;42.266;23.122;2023-05-03T00:52:03;95900.97;;;15.32;44.81
7754;BME280;3921;42.266;23.122;2023-05-03T00:54:36;95387.59;;;11.96;44.46
7754;BME280;3921;42.266;23.122;2023-05-03T00:57:04;95395.16;;;11.96;44.55
7754;BME280;3921;42.266;23.122;2023-05-03T00:59:32;95698.59;;;13.80;44.39
7754;BME280;3921;42.266;23.122;2023-05-03T01:02:01;95342.44;;;11.84;44.51
7754;BME280;3921;42.266;23.122;2023-05-03T01:04:30;95777.63;;;14.43;44.43
7754;BME280;3921;42.266;23.122;2023-05-03T01:07:06;95403.28;;;12.15;44.68
7754;BME280;3921;42.266;23.122;2023-05-03T01:10:07;95564.75;;;13.28;44.30
7754;BME280;3921;42.266;23.122;2023-05-03T01:12:47;95937.47;;;15.19;45.01
7754;BME280;3921;42.266;23.122;2023-05-03T01:15:30;95392.75;;;11.86;44.61
7754;BME280;3921;42.266;23.122;2023-05-03T01:18:05;95362.59;;;11.81;44.72
7754;BME280;3921;42.266;23.122;2023-05-03T01:20:36;95514.41;;;12.62;44.50
7754;BME280;3921;42.266;23.122;2023-05-03T01:23:08;95611.44;;;12.93;44.92
7754;BME280;3921;42.266;23.122;2023-05-03T01:25:39;95547.13;;;12.63;44.79
7754;BME280;3921;42.266;23.122;2023-05-03T01:28:06;95410.56;;;11.67;44.62
7754;BME280;3921;42.266;23.122;2023-05-03T01:30:35;95377.13;;;11.58;45.04
7754;BME280;3921;42.266;23.122;2023-05-03T01:33:10;95552.22;;;12.62;44.79
7754;BME280;3921;42.266;23.122;2023-05-03T01:35:40;95379.78;;;11.47;45.18
7754;BME280;3921;42.266;23.122;2023-05-03T01:38:10;95409.09;;;11.50;45.08
7754;BME280;3921;42.266;23.122;2023-05-03T01:40:42;95526.59;;;12.26;45.27
7754;BME280;3921;42.266;23.122;2023-05-03T01:43:12;95468.91;;;12.06;45.15
7754;BME280;3921;42.266;23.122;2023-05-03T01:45:41;95701.53;;;13.51;45.21
7754;BME280;3921;42.266;23.122;2023-05-03T01:48:09;95622.41;;;12.92;45.14
7754;BME280;3921;42.266;23.122;2023-05-03T01:50:37;95540.56;;;12.52;44.95
7754;BME280;3921;42.266;23.122;2023-05-03T01:53:06;95888.47;;;14.72;45.03
7754;BME280;3921;42.266;23.122;2023-05-03T01:55:34;95555.63;;;12.56;45.03
7754;BME280;3921;42.266;23.122;2023-05-03T01:58:04;95624.69;;;13.11;45.19
7754;BME280;3921;42.266;23.122;2023-05-03T02:00:35;95467.25;;;12.05;45.24
7754;BME280;3921;42.266;23.122;2023-05-03T02:03:09;95817.28;;;14.41;45.19
7754;BME280;3921;42.266;23.122;2023-05-03T02:05:38;95352.16;;;11.41;44.93
7754;BME280;3921;42.266;23.122;2023-05-03T02:08:05;95516.16;;;12.54;45.03
7754;BME280;3921;42.266;23.122;2023-05-03T02:10:35;95825.56;;;14.50;45.09
7754;BME280;3921;42.266;23.122;2023-05-03T02:13:06;95693.00;;;13.60;45.05
7754;BME280;3921;42.266;23.122;2023-05-03T02:15:33;95730.44;;;13.91;44.94
7754;BME280;3921;42.266;23.122;2023-05-03T02:18:00;95390.31;;;11.78;45.24
7754;BME280;3921;42.266;23.122;2023-05-03T02:20:28;95432.06;;;11.98;44.79
7754;BME280;3921;42.266;23.122;2023-05-03T02:22:59;95382.22;;;11.52;45.16
7754;BME280;3921;42.266;23.122;2023-05-03T02:25:26;95572.91;;;12.84;45.56
7754;BME280;3921;42.266;23.122;2023-05-03T02:27:54;95606.41;;;12.93;45.52
7754;BME280;3921;42.266;23.122;2023-05-03T02:30:22;95750.91;;;13.72;45.44
7754;BME280;3921;42.266;23.122;2023-05-03T02:32:49;95737.47;;;13.69;45.39
7754;BME280;3921;42.266;23.122;2023-05-03T02:35:16;95748.16;;;13.86;45.52
7754;BME280;3921;42.266;23.122;2023-05-03T02:37:43;95622.22;;;13.06;44.95
7754;BME280;3921;42.266;23.122;2023-05-03T02:40:11;95779.91;;;14.04;45.06
7754;BME280;3921;42.266;23.122;2023-05-03T02:42:38;95605.78;;;12.76;44.95
7754;BME280;3921;42.266;23.122;2023-05-03T02:45:06;95390.53;;;11.60;44.74
7754;BME280;3921;42.266;23.122;2023-05-03T02:47:35;95563.28;;;12.47;45.23
7754;BME280;3921;42.266;23.122;2023-05-03T02:50:03;95781.97;;;13.79;45.36
7754;BME280;3921;42.266;23.122;2023-05-03T02:52:30;95756.91;;;13.64;45.61
7754;BME280;3921;42.266;23.122;2023-05-03T02:54:57;95784.50;;;13.76;45.69
7754;BME280;3921;42.266;23.122;2023-05-03T02:57:25;95779.44;;;13.79;45.58
7754;BME280;3921;42.266;23.122;2023-05-03T02:59:52;95655.84;;;13.08;45.24
7754;BME280;3921;42.266;23.122;2023-05-03T03:02:19;95868.66;;;14.41;45.09
7754;BME280;3921;42.266;23.122;2023-05-03T03:04:48;95434.13;;;11.62;45.02
7754;BME280;3921;42.266;23.122;2023-05-03T03:07:15;95799.59;;;13.80;45.70
7754;BME280;3921;42.266;23.122;2023-05-03T03:09:42;95366.53;;;11.28;45.49
7754;BME280;3921;42.266;23.122;2023-05-03T03:12:10;95578.38;;;12.48;45.67
7754;BME280;3921;42.266;23.122;2023-05-03T03:14:38;95537.59;;;12.19;45.77
7754;BME280;3921;42.266;23.122;2023-05-03T03:17:06;95762.94;;;13.53;45.62
7754;BME280;3921;42.266;23.122;2023-05-03T03:19:34;95758.94;;;13.37;45.81
7754;BME280;3921;42.266;23.122;2023-05-03T03:22:05;95800.47;;;13.79;45.54
7754;BME280;3921;42.266;23.122;2023-05-03T03:24:34;95776.31;;;13.60;45.73
7754;BME280;3921;42.266;23.122;2023-05-03T03:27:01;95868.19;;;14.15;44.93
7754;BME280;3921;42.266;23.122;2023-05-03T03:29:30;95909.13;;;14.41;44.83
7754;BME280;3921;42.266;23.122;2023-05-03T03:31:57;95719.69;;;13.10;44.99
7754;BME280;3921;42.266;23.122;2023-05-03T03:34:24;95852.53;;;13.90;44.83
7754;BME280;3921;42.266;23.122;2023-05-03T03:36:51;95831.75;;;13.68;45.17
7754;BME280;3921;42.266;23.122;2023-05-03T03:39:20;95857.63;;;13.88;45.01
7754;BME280;3921;42.266;23.122;2023-05-03T03:41:47;95600.56;;;12.19;44.65
7754;BME280;3921;42.266;23.122;2023-05-03T03:44:14;95843.63;;;13.61;45.05
7754;BME280;3921;42.266;23.122;2023-05-03T03:46:41;95871.44;;;13.57;45.43
7754;BME280;3921;42.266;23.122;2023-05-03T03:49:08;95901.38;;;13.87;45.30
7754;BME280;3921;42.266;23.122;2023-05-03T03:51:36;95828.59;;;13.53;45.12
7754;BME280;3921;42.266;23.122;2023-05-03T03:54:04;95847.78;;;13.67;44.85
7754;BME280;3921;42.266;23.122;2023-05-03T03:56:32;95440.47;;;11.13;45.46
7754;BME280;3921;42.266;23.122;2023-05-03T03:58:59;95679.19;;;12.48;45.53
7754;BME280;3921;42.266;23.122;2023-05-03T04:01:26;95660.97;;;12.25;45.29
7754;BME280;3921;42.266;23.122;2023-05-03T04:03:54;95660.91;;;12.31;45.00
7754;BME280;3921;42.266;23.122;2023-05-03T04:06:21;95878.25;;;13.51;45.35
7754;BME280;3921;42.266;23.122;2023-05-03T04:08:48;95757.09;;;12.71;45.54
7754;BME280;3921;42.266;23.122;2023-05-03T04:11:19;95797.88;;;13.12;45.41
7754;BME280;3921;42.266;23.122;2023-05-03T04:14:10;95984.13;;;14.41;45.27
7754;BME280;3921;42.266;23.122;2023-05-03T04:16:37;95572.53;;;11.62;45.29
7754;BME280;3921;42.266;23.122;2023-05-03T04:19:04;95650.03;;;12.28;45.35
7754;BME280;3921;42.266;23.122;2023-05-03T04:21:31;95728.53;;;12.71;45.22
7754;BME280;3921;42.266;23.122;2023-05-03T04:23:59;95578.31;;;11.73;45.16
7754;BME280;3921;42.266;23.122;2023-05-03T04:26:26;95748.59;;;12.83;44.78
7754;BME280;3921;42.266;23.122;2023-05-03T04:28:53;95721.09;;;12.59;45.01
7754;BME280;3921;42.266;23.122;2023-05-03T04:31:22;95600.88;;;11.85;45.77
7754;BME280;3921;42.266;23.122;2023-05-03T04:33:49;95778.00;;;12.86;45.21
7754;BME280;3921;42.266;23.122;2023-05-03T04:36:16;95683.44;;;12.43;45.13
7754;BME280;3921;42.266;23.122;2023-05-03T04:38:43;95838.88;;;13.37;45.02
7754;BME280;3921;42.266;23.122;2023-05-03T04:41:13;95696.81;;;12.50;45.23
7754;BME280;3921;42.266;23.122;2023-05-03T04:43:41;95954.47;;;13.86;44.94
7754;BME280;3921;42.266;23.122;2023-05-03T04:46:11;95736.13;;;12.69;44.97
7754;BME280;3921;42.266;23.122;2023-05-03T04:48:40;95683.78;;;12.08;45.29
7754;BME280;3921;42.266;23.122;2023-05-03T04:51:07;95879.06;;;13.52;45.00
7754;BME280;3921;42.266;23.122;2023-05-03T04:53:46;95954.50;;;13.81;45.43
7754;BME280;3921;42.266;23.122;2023-05-03T04:56:29;95767.09;;;12.82;46.61
7754;BME280;3921;42.266;23.122;2023-05-03T04:59:06;95801.16;;;13.23;46.80
7754;BME280;3921;42.266;23.122;2023-05-03T05:01:37;95693.34;;;12.60;47.21
7754;BME280;3921;42.266;23.122;2023-05-03T05:04:06;95778.75;;;12.94;47.84
7754;BME280;3921;42.266;23.122;2023-05-03T05:06:33;95577.47;;;11.73;47.91
7754;BME280;3921;42.266;23.122;2023-05-03T05:09:00;95479.19;;;10.89;49.41
7754;BME280;3921;42.266;23.122;2023-05-03T05:11:29;95891.59;;;13.63;50.69
7754;BME280;3921;42.266;23.122;2023-05-03T05:13:58;96042.13;;;14.54;51.66
7754;BME280;3921;42.266;23.122;2023-05-03T05:16:28;95734.41;;;12.73;52.03
7754;BME280;3921;42.266;23.122;2023-05-03T05:18:55;95697.63;;;12.54;52.74
7754;BME280;3921;42.266;23.122;2023-05-03T05:21:23;95894.09;;;13.63;52.59
7754;BME280;3921;42.266;23.122;2023-05-03T05:23:51;95544.97;;;11.48;51.60
7754;BME280;3921;42.266;23.122;2023-05-03T05:26:18;95913.31;;;13.76;52.29
7754;BME280;3921;42.266;23.122;2023-05-03T05:28:45;95965.97;;;14.11;53.09
7754;BME280;3921;42.266;23.122;2023-05-03T05:31:12;95888.94;;;13.73;53.03
7754;BME280;3921;42.266;23.122;2023-05-03T05:33:40;95925.03;;;13.83;52.86
7754;BME280;3921;42.266;23.122;2023-05-03T05:36:07;95509.88;;;11.33;51.35
7754;BME280;3921;42.266;23.122;2023-05-03T05:38:36;95609.28;;;11.80;51.28
7754;BME280;3921;42.266;23.122;2023-05-03T05:41:03;95736.03;;;12.77;50.63
7754;BME280;3921;42.266;23.122;2023-05-03T05:43:30;95836.28;;;13.41;50.02
7754;BME280;3921;42.266;23.122;2023-05-03T05:45:57;95557.53;;;11.50;49.46
7754;BME280;3921;42.266;23.122;2023-05-03T05:48:24;95968.47;;;14.13;48.14
7754;BME280;3921;42.266;23.122;2023-05-03T05:50:51;95793.66;;;13.12;48.27
7754;BME280;3921;42.266;23.122;2023-05-03T05:53:18;95979.41;;;14.13;48.09
7754;BME280;3921;42.266;23.122;2023-05-03T05:55:47;95754.00;;;12.43;48.39
7754;BME280;3921;42.266;23.122;2023-05-03T05:58:14;95635.34;;;11.74;48.40
7754;BME280;3921;42.266;23.122;2023-05-03T06:00:41;95955.28;;;13.89;47.85
7754;BME280;3921;42.266;23.122;2023-05-03T06:03:08;95702.97;;;12.20;48.04
7754;BME280;3921;42.266;23.122;2023-05-03T06:05:35;95842.59;;;12.99;49.22
7754;BME280;3921;42.266;23.122;2023-05-03T06:08:02;95620.56;;;11.36;49.25
7754;BME280;3921;42.266;23.122;2023-05-03T06:10:29;95869.44;;;13.01;49.47
7754;BME280;3921;42.266;23.122;2023-05-03T06:12:58;95856.97;;;12.89;49.87
7754;BME280;3921;42.266;23.122;2023-05-03T06:15:25;95531.03;;;11.06;49.92
7754;BME280;3921;42.266;23.122;2023-05-03T06:17:52;95598.66;;;11.46;49.78
7754;BME280;3921;42.266;23.122;2023-05-03T06:20:20;95937.97;;;13.52;49.82
7754;BME280;3921;42.266;23.122;2023-05-03T06:22:48;95785.84;;;12.57;49.91
7754;BME280;3921;42.266;23.122;2023-05-03T06:25:16;95945.41;;;13.65;50.10
7754;BME280;3921;42.266;23.122;2023-05-03T06:27:43;95949.59;;;13.69;49.94
7754;BME280;3921;42.266;23.122;2023-05-03T06:30:12;95820.88;;;12.86;50.43
7754;BME280;3921;42.266;23.122;2023-05-03T06:32:40;95935.56;;;13.40;50.39
7754;BME280;3921;42.266;23.122;2023-05-03T06:35:08;95749.81;;;12.42;50.60
7754;BME280;3921;42.266;23.122;2023-05-03T06:37:35;95713.91;;;12.19;50.42
7754;BME280;3921;42.266;23.122;2023-05-03T06:40:03;95821.63;;;12.94;50.51
7754;BME280;3921;42.266;23.122;2023-05-03T06:42:31;95798.91;;;12.95;49.81
7754;BME280;3921;42.266;23.122;2023-05-03T06:44:58;95700.34;;;12.34;49.46
7754;BME280;3921;42.266;23.122;2023-05-03T06:47:26;95691.97;;;12.33;50.28
7754;BME280;3921;42.266;23.122;2023-05-03T06:49:53;95912.69;;;13.57;50.09
7754;BME280;3921;42.266;23.122;2023-05-03T06:52:21;95864.13;;;13.37;50.35
7754;BME280;3921;42.266;23.122;2023-05-03T06:54:48;95689.50;;;12.26;49.92
7754;BME280;3921;42.266;23.122;2023-05-03T06:57:15;95643.53;;;12.05;49.50
7754;BME280;3921;42.266;23.122;2023-05-03T06:59:42;95453.31;;;10.80;50.36
7754;BME280;3921;42.266;23.122;2023-05-03T07:02:09;95821.38;;;13.20;49.65
7754;BME280;3921;42.266;23.122;2023-05-03T07:04:38;95918.50;;;13.65;50.51
7754;BME280;3921;42.266;23.122;2023-05-03T07:07:05;95920.94;;;13.70;50.36
7754;BME280;3921;42.266;23.122;2023-05-03T07:09:35;95997.84;;;14.20;50.46
7754;BME280;3921;42.266;23.122;2023-05-03T07:12:02;95940.28;;;13.74;50.56
7754;BME280;3921;42.266;23.122;2023-05-03T07:14:30;96011.13;;;14.37;50.04
7754;BME280;3921;42.266;23.122;2023-05-03T07:16:57;95889.22;;;13.49;50.50
7754;BME280;3921;42.266;23.122;2023-05-03T07:19:29;95731.97;;;12.64;50.68
7754;BME280;3921;42.266;23.122;2023-05-03T07:21:58;95974.53;;;13.99;49.69
7754;BME280;3921;42.266;23.122;2023-05-03T07:24:28;95930.03;;;13.86;49.84
7754;BME280;3921;42.266;23.122;2023-05-03T07:26:55;95564.00;;;11.75;49.68
7754;BME280;3921;42.266;23.122;2023-05-03T07:29:22;95717.59;;;12.72;49.90
7754;BME280;3921;42.266;23.122;2023-05-03T07:31:49;95920.81;;;13.84;50.38
7754;BME280;3921;42.266;23.122;2023-05-03T07:34:16;95895.84;;;13.59;50.51
7754;BME280;3921;42.266;23.122;2023-05-03T07:36:43;95779.00;;;12.66;51.35
7754;BME280;3921;42.266;23.122;2023-05-03T07:39:11;95966.13;;;13.97;50.87
7754;BME280;3921;42.266;23.122;2023-05-03T07:41:38;95724.50;;;12.55;50.81
7754;BME280;3921;42.266;23.122;2023-05-03T07:44:05;95859.97;;;13.31;51.58
7754;BME280;3921;42.266;23.122;2023-05-03T07:46:33;95938.53;;;13.82;51.36
7754;BME280;3921;42.266;23.122;2023-05-03T07:49:00;95796.41;;;12.94;51.85
7754;BME280;3921;42.266;23.122;2023-05-03T07:51:27;95952.75;;;13.89;51.53
7754;BME280;3921;42.266;23.122;2023-05-03T07:53:56;95937.66;;;13.81;52.08
7754;BME280;3921;42.266;23.122;2023-05-03T07:56:27;95956.06;;;13.94;51.95
7754;BME280;3921;42.266;23.122;2023-05-03T07:58:55;95906.53;;;13.79;52.11
7754;BME280;3921;42.266;23.122;2023-05-03T08:01:22;95944.97;;;14.06;51.59
7754;BME280;3921;42.266;23.122;2023-05-03T08:03:49;95793.75;;;13.06;51.58
7754;BME280;3921;42.266;23.122;2023-05-03T08:06:18;95939.09;;;14.05;52.11
7754;BME280;3921;42.266;23.122;2023-05-03T08:08:45;95572.25;;;11.95;51.47
7754;BME280;3921;42.266;23.122;2023-05-03T08:11:12;95718.44;;;12.72;51.95
7754;BME280;3921;42.266;23.122;2023-05-03T08:13:50;95735.59;;;13.17;51.49
7754;BME280;3921;42.266;23.122;2023-05-03T08:16:17;95984.84;;;14.53;52.05
7754;BME280;3921;42.266;23.122;2023-05-03T08:18:47;95486.94;;;11.66;51.75
7754;BME280;3921;42.266;23.122;2023-05-03T08:21:14;95925.06;;;14.46;51.84
7754;BME280;3921;42.266;23.122;2023-05-03T08:23:42;95904.97;;;14.37;52.01
7754;BME280;3921;42.266;23.122;2023-05-03T08:26:09;95829.63;;;14.02;51.12
7754;BME280;3921;42.266;23.122;2023-05-03T08:28:38;95774.69;;;13.56;51.29
7754;BME280;3921;42.266;23.122;2023-05-03T08:31:06;95970.06;;;14.86;50.33
7754;BME280;3921;42.266;23.122;2023-05-03T08:33:41;95965.78;;;14.88;50.66
7754;BME280;3921;42.266;23.122;2023-05-03T08:36:08;95695.75;;;13.42;50.30
7754;BME280;3921;42.266;23.122;2023-05-03T08:38:38;95843.38;;;14.43;50.45
7754;BME280;3921;42.266;23.122;2023-05-03T08:41:14;95804.16;;;14.16;50.54
7754;BME280;3921;42.266;23.122;2023-05-03T08:43:43;95529.97;;;12.25;50.93
7754;BME280;3921;42.266;23.122;2023-05-03T08:46:12;95935.25;;;14.99;51.05
7754;BME280;3921;42.266;23.122;2023-05-03T08:48:40;95573.00;;;12.79;50.96
7754;BME280;3921;42.266;23.122;2023-05-03T08:51:09;95957.31;;;14.91;51.20
7754;BME280;3921;42.266;23.122;2023-05-03T08:53:36;95830.69;;;14.47;50.96
7754;BME280;3921;42.266;23.122;2023-05-03T08:56:07;95828.97;;;14.51;51.13
7754;BME280;3921;42.266;23.122;2023-05-03T08:58:34;95937.47;;;15.19;50.33
7754;BME280;3921;42.266;23.122;2023-05-03T09:01:06;95552.75;;;12.82;50.94
7754;BME280;3921;42.266;23.122;2023-05-03T09:03:35;95943.09;;;15.34;50.94
7754;BME280;3921;42.266;23.122;2023-05-03T09:06:17;95872.94;;;14.93;51.22
7754;BME280;3921;42.266;23.122;2023-05-03T09:08:45;95881.41;;;14.92;50.79
7754;BME280;3921;42.266;23.122;2023-05-03T09:11:19;95675.22;;;13.68;51.47
7754;BME280;3921;42.266;23.122;2023-05-03T09:13:47;95510.88;;;12.73;51.45
7754;BME280;3921;42.266;23.122;2023-05-03T09:16:21;95845.13;;;14.93;51.25
7754;BME280;3921;42.266;23.122;2023-05-03T09:18:57;95838.72;;;14.72;51.27
7754;BME280;3921;42.266;23.122;2023-05-03T09:21:25;95885.22;;;15.16;51.04
7754;BME280;3921;42.266;23.122;2023-05-03T09:23:52;95928.72;;;15.38;51.43
7754;BME280;3921;42.266;23.122;2023-05-03T09:26:29;95834.06;;;14.99;50.77
7754;BME280;3921;42.266;23.122;2023-05-03T09:28:57;96004.66;;;15.89;50.36
7754;BME280;3921;42.266;23.122;2023-05-03T09:31:25;95797.38;;;14.73;50.97
7754;BME280;3921;42.266;23.122;2023-05-03T09:33:53;95851.28;;;15.26;51.31
7754;BME280;3921;42.266;23.122;2023-05-03T09:36:21;95862.09;;;15.34;51.26
7754;BME280;3921;42.266;23.122;2023-05-03T09:38:49;95819.47;;;15.11;51.34
7754;BME280;3921;42.266;23.122;2023-05-03T09:41:25;95937.78;;;15.96;51.69
7754;BME280;3921;42.266;23.122;2023-05-03T09:43:53;95861.81;;;15.48;51.58
7754;BME280;3921;42.266;23.122;2023-05-03T09:46:22;95652.19;;;14.37;51.91
7754;BME280;3921;42.266;23.122;2023-05-03T09:48:51;95693.09;;;14.59;52.48
7754;BME280;3921;42.266;23.122;2023-05-03T09:51:23;95647.31;;;14.28;52.79
7754;BME280;3921;42.266;23.122;2023-05-03T09:53:51;95622.38;;;14.08;52.61
7754;BME280;3921;42.266;23.122;2023-05-03T09:56:18;95801.59;;;15.21;53.25
7754;BME280;3921;42.266;23.122;2023-05-03T09:58:51;95833.94;;;15.50;52.86
7754;BME280;3921;42.266;23.122;2023-05-03T10:01:19;95749.66;;;15.01;52.50
7754;BME280;3921;42.266;23.122;2023-05-03T10:03:48;95828.06;;;15.48;52.33
7754;BME280;3921;42.266;23.122;2023-05-03T10:06:23;95700.91;;;14.93;51.54
7754;BME280;3921;42.266;23.122;2023-05-03T10:09:00;95700.94;;;14.90;51.83
7754;BME280;3921;42.266;23.122;2023-05-03T10:11:32;95445.19;;;13.37;52.34
7754;BME280;3921;42.266;23.122;2023-05-03T10:14:00;95896.88;;;16.13;52.80
7754;BME280;3921;42.266;23.122;2023-05-03T10:16:30;95831.72;;;15.78;53.26
7754;BME280;3921;42.266;23.122;2023-05-03T10:19:06;95704.84;;;15.06;53.08
7754;BME280;3921;42.266;23.122;2023-05-03T10:21:46;95930.81;;;16.48;52.25
7754;BME280;3921;42.266;23.122;2023-05-03T10:24:17;95721.59;;;15.12;51.79
7754;BME280;3921;42.266;23.122;2023-05-03T10:26:45;95838.34;;;15.85;51.61
7754;BME280;3921;42.266;23.122;2023-05-03T10:29:43;95930.84;;;16.46;51.14
7754;BME280;3921;42.266;23.122;2023-05-03T10:32:31;95807.50;;;15.66;51.32
7754;BME280;3921;42.266;23.122;2023-05-03T10:35:00;95844.31;;;15.81;51.92
7754;BME280;3921;42.266;23.122;2023-05-03T10:37:31;95824.06;;;15.81;51.94
7754;BME280;3921;42.266;23.122;2023-05-03T10:40:08;95748.44;;;15.19;51.98
7754;BME280;3921;42.266;23.122;2023-05-03T10:42:36;95831.75;;;15.76;52.47
7754;BME280;3921;42.266;23.122;2023-05-03T10:45:06;95845.63;;;15.99;53.73
7754;BME280;3921;42.266;23.122;2023-05-03T10:47:33;95617.22;;;14.60;54.40
7754;BME280;3921;42.266;23.122;2023-05-03T10:50:28;95909.09;;;16.75;54.99
7754;BME280;3921;42.266;23.122;2023-05-03T10:52:56;95733.63;;;15.84;54.29
7754;BME280;3921;42.266;23.122;2023-05-03T10:55:23;95774.03;;;16.26;52.85
7754;BME280;3921;42.266;23.122;2023-05-03T10:57:53;95648.91;;;15.57;51.96
7754;BME280;3921;42.266;23.122;2023-05-03T11:00:32;95724.25;;;16.24;51.72
7754;BME280;3921;42.266;23.122;2023-05-03T11:03:27;95882.44;;;17.25;51.04
7754;BME280;3921;42.266;23.122;2023-05-03T11:05:56;95820.75;;;16.89;51.02
7754;BME280;3921;42.266;23.122;2023-05-03T11:08:25;95881.28;;;17.37;50.46
7754;BME280;3921;42.266;23.122;2023-05-03T11:10:57;95799.72;;;16.84;51.04
7754;BME280;3921;42.266;23.122;2023-05-03T11:13:24;95726.03;;;16.54;51.14
7754;BME280;3921;42.266;23.122;2023-05-03T11:15:52;95829.59;;;17.39;50.10
7754;BME280;3921;42.266;23.122;2023-05-03T11:18:20;95678.22;;;16.39;50.80
7754;BME280;3921;42.266;23.122;2023-05-03T11:20:48;95793.53;;;17.27;50.85
7754;BME280;3921;42.266;23.122;2023-05-03T11:23:15;95703.00;;;16.62;51.27
7754;BME280;3921;42.266;23.122;2023-05-03T11:25:43;95641.94;;;16.37;51.51
7754;BME280;3921;42.266;23.122;2023-05-03T11:28:10;95785.91;;;17.27;51.56
7754;BME280;3921;42.266;23.122;2023-05-03T11:30:37;95754.69;;;17.23;50.92
7754;BME280;3921;42.266;23.122;2023-05-03T11:33:05;95756.97;;;17.32;51.70
7754;BME280;3921;42.266;23.122;2023-05-03T11:35:32;95737.22;;;17.42;51.07
7754;BME280;3921;42.266;23.122;2023-05-03T11:37:59;95754.97;;;17.71;50.56
7754;BME280;3921;42.266;23.122;2023-05-03T11:40:26;95704.31;;;17.39;50.35
7754;BME280;3921;42.266;23.122;2023-05-03T11:42:55;95676.72;;;17.27;49.68
7754;BME280;3921;42.266;23.122;2023-05-03T11:45:24;95815.34;;;18.22;49.54
7754;BME280;3921;42.266;23.122;2023-05-03T11:47:52;95620.47;;;16.81;49.38
7754;BME280;3921;42.266;23.122;2023-05-03T11:50:26;95559.41;;;16.56;49.71
7754;BME280;3921;42.266;23.122;2023-05-03T11:52:54;95665.16;;;17.16;50.60
7754;BME280;3921;42.266;23.122;2023-05-03T11:55:25;95707.53;;;17.44;50.94
7754;BME280;3921;42.266;23.122;2023-05-03T11:57:53;95673.06;;;17.06;51.81
7754;BME280;3921;42.266;23.122;2023-05-03T12:00:23;95710.75;;;17.19;51.99
7754;BME280;3921;42.266;23.122;2023-05-03T12:02:50;95708.38;;;17.15;51.94
7754;BME280;3921;42.266;23.122;2023-05-03T12:05:17;95694.72;;;16.88;52.72
7754;BME280;3921;42.266;23.122;2023-05-03T12:07:45;95732.69;;;16.92;53.15
7754;BME280;3921;42.266;23.122;2023-05-03T12:10:16;95655.22;;;16.45;52.50
7754;BME280;3921;42.266;23.122;2023-05-03T12:12:55;95641.31;;;16.29;52.75
7754;BME280;3921;42.266;23.122;2023-05-03T12:15:29;95827.75;;;17.44;53.14
7754;BME280;3921;42.266;23.122;2023-05-03T12:17:57;95716.25;;;16.75;53.32
7754;BME280;3921;42.266;23.122;2023-05-03T12:20:26;95662.53;;;16.25;53.43
7754;BME280;3921;42.266;23.122;2023-05-03T12:22:56;95364.03;;;14.37;53.99
7754;BME280;3921;42.266;23.122;2023-05-03T12:25:24;95651.25;;;16.02;54.46
7754;BME280;3921;42.266;23.122;2023-05-03T12:27:55;95738.88;;;16.48;54.46
7754;BME280;3921;42.266;23.122;2023-05-03T12:30:23;95637.66;;;15.71;54.66
7754;BME280;3921;42.266;23.122;2023-05-03T12:32:51;95788.09;;;16.39;55.16
7754;BME280;3921;42.266;23.122;2023-05-03T12:35:18;95711.84;;;15.76;55.46
7754;BME280;3921;42.266;23.122;2023-05-03T12:37:46;95645.59;;;15.17;57.34
7754;BME280;3921;42.266;23.122;2023-05-03T12:40:14;95410.22;;;13.62;57.02
7754;BME280;3921;42.266;23.122;2023-05-03T12:42:42;95650.38;;;14.88;57.75
7754;BME280;3921;42.266;23.122;2023-05-03T12:45:11;95502.19;;;13.95;58.00
7754;BME280;3921;42.266;23.122;2023-05-03T12:47:38;95417.81;;;13.60;59.70
7754;BME280;3921;42.266;23.122;2023-05-03T12:50:06;95764.06;;;15.83;62.08
7754;BME280;3921;42.266;23.122;2023-05-03T12:52:35;95791.69;;;15.93;65.34
7754;BME280;3921;42.266;23.122;2023-05-03T12:55:03;95779.53;;;15.69;67.33
7754;BME280;3921;42.266;23.122;2023-05-03T12:57:32;95750.97;;;15.62;69.22
7754;BME280;3921;42.266;23.122;2023-05-03T13:00:00;95564.19;;;14.57;70.94
7754;BME280;3921;42.266;23.122;2023-05-03T13:02:29;95782.56;;;15.86;71.46
7754;BME280;3921;42.266;23.122;2023-05-03T13:04:56;95541.59;;;14.48;72.76
7754;BME280;3921;42.266;23.122;2023-05-03T13:07:24;95730.66;;;15.65;73.42
7754;BME280;3921;42.266;23.122;2023-05-03T13:09:52;95680.09;;;15.21;73.30
7754;BME280;3921;42.266;23.122;2023-05-03T13:12:19;95742.66;;;15.56;73.26
7754;BME280;3921;42.266;23.122;2023-05-03T13:14:47;95731.00;;;15.49;74.20
7754;BME280;3921;42.266;23.122;2023-05-03T13:17:15;95779.00;;;15.95;74.96
7754;BME280;3921;42.266;23.122;2023-05-03T13:19:44;95496.75;;;14.15;75.14
7754;BME280;3921;42.266;23.122;2023-05-03T13:22:12;95756.06;;;16.00;76.31